sensor_id;sensor_type;location;lat;lon;timestamp;P1;durP1;ratioP1;P2;durP2;ratioP2
679;SDS011;322;48.846;9.230;2023-05-10T00:02:16;1.70;;;1.30;;
679;SDS011;322;48.846;9.230;2023-05-10T00:04:44;2.87;;;1.23;;
679;SDS011;322;48.846;9.230;2023-05-10T00:07:12;2.97;;;1.13;;
679;SDS011;322;48.846;9.230;2023-05-10T00:09:40;2.40;;;0.67;;
679;SDS011;322;48.846;9.230;2023-05-10T00:12:08;0.70;;;0.70;;
679;SDS011;322;48.846;9.230;2023-05-10T00:14:37;1.00;;;0.53;;
679;SDS011;322;48.846;9.230;2023-05-10T00:17:05;1.47;;;0.37;;
679;SDS011;322;48.846;9.230;2023-05-10T00:19:33;1.00;;;0.50;;
679;SDS011;322;48.846;9.230;2023-05-10T00:22:01;1.90;;;0.40;;
679;SDS011;322;48.846;9.230;2023-05-10T00:24:29;0.80;;;0.40;;
679;SDS011;322;48.846;9.230;2023-05-10T00:26:57;0.50;;;0.40;;
679;SDS011;322;48.846;9.230;2023-05-10T00:29:25;0.90;;;0.53;;
679;SDS011;322;48.846;9.230;2023-05-10T00:31:55;1.30;;;0.40;;
679;SDS011;322;48.846;9.230;2023-05-10T00:34:23;1.20;;;0.50;;
679;SDS011;322;48.846;9.230;2023-05-10T00:36:52;0.70;;;0.30;;
679;SDS011;322;48.846;9.230;2023-05-10T00:39:19;1.83;;;0.50;;
679;SDS011;322;48.846;9.230;2023-05-10T00:41:47;0.70;;;0.30;;
679;SDS011;322;48.846;9.230;2023-05-10T00:44:15;0.60;;;0.30;;
679;SDS011;322;48.846;9.230;2023-05-10T00:46:44;1.00;;;0.37;;
679;SDS011;322;48.846;9.230;2023-05-10T00:49:13;2.00;;;0.50;;
679;SDS011;322;48.846;9.230;2023-05-10T00:51:42;0.93;;;0.50;;
679;SDS011;322;48.846;9.230;2023-05-10T00:54:10;3.80;;;0.60;;
679;SDS011;322;48.846;9.230;2023-05-10T00:56:41;2.20;;;0.47;;
679;SDS011;322;48.846;9.230;2023-05-10T00:59:09;0.70;;;0.30;;
679;SDS011;322;48.846;9.230;2023-05-10T01:01:37;2.47;;;0.60;;
679;SDS011;322;48.846;9.230;2023-05-10T01:04:06;1.73;;;0.40;;
679;SDS011;322;48.846;9.230;2023-05-10T01:06:36;0.50;;;0.30;;
679;SDS011;322;48.846;9.230;2023-05-10T01:12:51;0.60;;;0.43;;
679;SDS011;322;48.846;9.230;2023-05-10T01:15:19;0.60;;;0.50;;
679;SDS011;322;48.846;9.230;2023-05-10T01:17:48;0.83;;;0.70;;
679;SDS011;322;48.846;9.230;2023-05-10T01:20:16;1.00;;;0.70;;
679;SDS011;322;48.846;9.230;2023-05-10T01:29:13;0.60;;;0.57;;
679;SDS011;322;48.846;9.230;2023-05-10T01:34:52;1.57;;;0.67;;
679;SDS011;322;48.846;9.230;2023-05-10T01:37:25;0.70;;;0.70;;
679;SDS011;322;48.846;9.230;2023-05-10T01:40:00;0.80;;;0.80;;
679;SDS011;322;48.846;9.230;2023-05-10T01:42:35;1.27;;;0.90;;
679;SDS011;322;48.846;9.230;2023-05-10T01:45:07;2.43;;;1.23;;
679;SDS011;322;48.846;9.230;2023-05-10T01:47:43;1.60;;;0.90;;
679;SDS011;322;48.846;9.230;2023-05-10T01:50:15;1.37;;;1.27;;
679;SDS011;322;48.846;9.230;2023-05-10T01:52:47;1.10;;;1.00;;
679;SDS011;322;48.846;9.230;2023-05-10T01:55:20;1.10;;;1.00;;
679;SDS011;322;48.846;9.230;2023-05-10T01:57:51;1.60;;;1.00;;
679;SDS011;322;48.846;9.230;2023-05-10T02:00:26;1.40;;;1.30;;
679;SDS011;322;48.846;9.230;2023-05-10T02:02:57;1.53;;;1.30;;
679;SDS011;322;48.846;9.230;2023-05-10T02:05:26;3.00;;;1.23;;
679;SDS011;322;48.846;9.230;2023-05-10T02:07:57;1.30;;;1.00;;
679;SDS011;322;48.846;9.230;2023-05-10T02:10:27;1.17;;;1.07;;
679;SDS011;322;48.846;9.230;2023-05-10T02:12:56;1.40;;;1.30;;
679;SDS011;322;48.846;9.230;2023-05-10T02:15:26;1.20;;;1.00;;
679;SDS011;322;48.846;9.230;2023-05-10T02:17:57;1.20;;;0.93;;
679;SDS011;322;48.846;9.230;2023-05-10T02:20:27;1.10;;;1.00;;
679;SDS011;322;48.846;9.230;2023-05-10T02:22:56;2.33;;;1.13;;
679;SDS011;322;48.846;9.230;2023-05-10T02:25:25;2.87;;;0.90;;
679;SDS011;322;48.846;9.230;2023-05-10T02:27:54;4.10;;;1.00;;
679;SDS011;322;48.846;9.230;2023-05-10T02:30:24;1.73;;;1.40;;
679;SDS011;322;48.846;9.230;2023-05-10T02:32:52;1.50;;;0.90;;
679;SDS011;322;48.846;9.230;2023-05-10T02:35:23;1.30;;;1.03;;
679;SDS011;322;48.846;9.230;2023-05-10T02:37:52;1.57;;;1.07;;
679;SDS011;322;48.846;9.230;2023-05-10T02:40:22;1.77;;;1.10;;
679;SDS011;322;48.846;9.230;2023-05-10T02:42:54;2.07;;;1.17;;
679;SDS011;322;48.846;9.230;2023-05-10T02:45:25;2.40;;;1.23;;
679;SDS011;322;48.846;9.230;2023-05-10T02:47:57;1.30;;;1.20;;
679;SDS011;322;48.846;9.230;2023-05-10T02:50:28;1.33;;;1.20;;
679;SDS011;322;48.846;9.230;2023-05-10T02:52:59;1.20;;;1.00;;
679;SDS011;322;48.846;9.230;2023-05-10T02:55:32;2.60;;;1.20;;
679;SDS011;322;48.846;9.230;2023-05-10T02:58:04;1.07;;;0.90;;
679;SDS011;322;48.846;9.230;2023-05-10T03:00:32;1.23;;;1.07;;
679;SDS011;322;48.846;9.230;2023-05-10T03:03:00;1.47;;;1.03;;
679;SDS011;322;48.846;9.230;2023-05-10T03:05:29;1.97;;;1.00;;
679;SDS011;322;48.846;9.230;2023-05-10T03:07:57;1.33;;;1.00;;
679;SDS011;322;48.846;9.230;2023-05-10T03:10:27;1.47;;;1.37;;
679;SDS011;322;48.846;9.230;2023-05-10T03:13:01;3.83;;;3.53;;
679;SDS011;322;48.846;9.230;2023-05-10T03:15:37;3.40;;;2.90;;
679;SDS011;322;48.846;9.230;2023-05-10T03:18:15;1.30;;;1.20;;
679;SDS011;322;48.846;9.230;2023-05-10T03:20:50;1.73;;;1.57;;
679;SDS011;322;48.846;9.230;2023-05-10T03:23:25;1.73;;;1.63;;
679;SDS011;322;48.846;9.230;2023-05-10T03:25:57;2.43;;;2.03;;
679;SDS011;322;48.846;9.230;2023-05-10T03:28:27;2.67;;;2.47;;
679;SDS011;322;48.846;9.230;2023-05-10T03:30:57;3.17;;;2.70;;
679;SDS011;322;48.846;9.230;2023-05-10T03:33:26;3.67;;;3.37;;
679;SDS011;322;48.846;9.230;2023-05-10T03:35:55;10.67;;;4.60;;
679;SDS011;322;48.846;9.230;2023-05-10T03:38:23;4.57;;;4.17;;
679;SDS011;322;48.846;9.230;2023-05-10T03:40:54;4.47;;;4.17;;
679;SDS011;322;48.846;9.230;2023-05-10T03:43:22;6.00;;;4.43;;
679;SDS011;322;48.846;9.230;2023-05-10T03:45:50;4.43;;;4.03;;
679;SDS011;322;48.846;9.230;2023-05-10T03:48:18;8.40;;;4.20;;
679;SDS011;322;48.846;9.230;2023-05-10T03:50:46;6.20;;;5.07;;
679;SDS011;322;48.846;9.230;2023-05-10T03:53:16;4.40;;;3.70;;
679;SDS011;322;48.846;9.230;2023-05-10T03:55:44;3.07;;;2.80;;
679;SDS011;322;48.846;9.230;2023-05-10T03:58:12;3.47;;;3.20;;
679;SDS011;322;48.846;9.230;2023-05-10T04:00:40;5.10;;;2.90;;
679;SDS011;322;48.846;9.230;2023-05-10T04:03:11;3.03;;;2.83;;
679;SDS011;322;48.846;9.230;2023-05-10T04:05:39;2.90;;;2.20;;
679;SDS011;322;48.846;9.230;2023-05-10T04:08:07;4.50;;;2.13;;
679;SDS011;322;48.846;9.230;2023-05-10T04:10:37;2.20;;;2.00;;
679;SDS011;322;48.846;9.230;2023-05-10T04:13:05;3.70;;;1.80;;
679;SDS011;322;48.846;9.230;2023-05-10T04:15:33;5.70;;;2.50;;
679;SDS011;322;48.846;9.230;2023-05-10T04:18:02;2.60;;;2.40;;
679;SDS011;322;48.846;9.230;2023-05-10T04:20:33;3.87;;;2.50;;
679;SDS011;322;48.846;9.230;2023-05-10T04:23:01;4.90;;;2.10;;
679;SDS011;322;48.846;9.230;2023-05-10T04:25:29;3.50;;;2.70;;
679;SDS011;322;48.846;9.230;2023-05-10T04:27:58;5.03;;;2.47;;
679;SDS011;322;48.846;9.230;2023-05-10T04:30:26;2.93;;;2.20;;
679;SDS011;322;48.846;9.230;2023-05-10T04:32:55;1.73;;;1.60;;
679;SDS011;322;48.846;9.230;2023-05-10T04:35:23;3.87;;;2.30;;
679;SDS011;322;48.846;9.230;2023-05-10T04:37:51;2.10;;;2.00;;
679;SDS011;322;48.846;9.230;2023-05-10T04:40:19;2.10;;;1.77;;
679;SDS011;322;48.846;9.230;2023-05-10T04:42:47;5.53;;;2.10;;
679;SDS011;322;48.846;9.230;2023-05-10T04:45:16;2.40;;;1.93;;
679;SDS011;322;48.846;9.230;2023-05-10T04:47:44;2.23;;;1.50;;
679;SDS011;322;48.846;9.230;2023-05-10T04:50:12;2.20;;;1.57;;
679;SDS011;322;48.846;9.230;2023-05-10T04:52:41;2.60;;;1.60;;
679;SDS011;322;48.846;9.230;2023-05-10T04:55:08;1.83;;;1.73;;
679;SDS011;322;48.846;9.230;2023-05-10T04:57:36;1.67;;;1.30;;
679;SDS011;322;48.846;9.230;2023-05-10T05:00:05;3.37;;;1.20;;
679;SDS011;322;48.846;9.230;2023-05-10T05:02:35;3.40;;;1.20;;
679;SDS011;322;48.846;9.230;2023-05-10T05:05:04;2.90;;;1.67;;
679;SDS011;322;48.846;9.230;2023-05-10T05:07:32;1.70;;;1.53;;
679;SDS011;322;48.846;9.230;2023-05-10T05:10:00;1.50;;;1.40;;
679;SDS011;322;48.846;9.230;2023-05-10T05:12:29;1.60;;;1.40;;
679;SDS011;322;48.846;9.230;2023-05-10T05:14:57;1.60;;;1.50;;
679;SDS011;322;48.846;9.230;2023-05-10T05:17:25;1.40;;;1.30;;
679;SDS011;322;48.846;9.230;2023-05-10T05:19:54;1.70;;;1.60;;
679;SDS011;322;48.846;9.230;2023-05-10T05:22:22;2.20;;;1.43;;
679;SDS011;322;48.846;9.230;2023-05-10T05:24:53;1.50;;;1.40;;
679;SDS011;322;48.846;9.230;2023-05-10T05:27:22;1.87;;;1.23;;
679;SDS011;322;48.846;9.230;2023-05-10T05:29:52;1.90;;;1.50;;
679;SDS011;322;48.846;9.230;2023-05-10T05:32:20;1.80;;;1.20;;
679;SDS011;322;48.846;9.230;2023-05-10T05:34:48;1.63;;;1.53;;
679;SDS011;322;48.846;9.230;2023-05-10T05:37:19;2.60;;;1.60;;
679;SDS011;322;48.846;9.230;2023-05-10T05:39:48;1.60;;;1.10;;
679;SDS011;322;48.846;9.230;2023-05-10T05:42:16;3.40;;;1.60;;
679;SDS011;322;48.846;9.230;2023-05-10T05:44:45;3.63;;;1.37;;
679;SDS011;322;48.846;9.230;2023-05-10T05:47:12;3.33;;;1.37;;
679;SDS011;322;48.846;9.230;2023-05-10T05:49:40;3.60;;;1.40;;
679;SDS011;322;48.846;9.230;2023-05-10T05:52:08;4.47;;;1.50;;
679;SDS011;322;48.846;9.230;2023-05-10T05:54:37;3.33;;;2.07;;
679;SDS011;322;48.846;9.230;2023-05-10T05:57:05;1.77;;;1.63;;
679;SDS011;322;48.846;9.230;2023-05-10T05:59:33;4.07;;;1.60;;
679;SDS011;322;48.846;9.230;2023-05-10T06:02:01;2.13;;;1.40;;
679;SDS011;322;48.846;9.230;2023-05-10T06:04:29;1.30;;;1.20;;
679;SDS011;322;48.846;9.230;2023-05-10T06:06:57;4.93;;;1.83;;
679;SDS011;322;48.846;9.230;2023-05-10T06:09:25;4.27;;;1.57;;
679;SDS011;322;48.846;9.230;2023-05-10T06:11:54;1.87;;;1.50;;
679;SDS011;322;48.846;9.230;2023-05-10T06:14:23;3.20;;;1.60;;
679;SDS011;322;48.846;9.230;2023-05-10T06:16:51;2.50;;;1.87;;
679;SDS011;322;48.846;9.230;2023-05-10T06:19:19;2.80;;;1.60;;
679;SDS011;322;48.846;9.230;2023-05-10T06:21:47;1.33;;;1.23;;
679;SDS011;322;48.846;9.230;2023-05-10T06:24:17;3.00;;;1.90;;
679;SDS011;322;48.846;9.230;2023-05-10T06:26:45;2.53;;;2.10;;
679;SDS011;322;48.846;9.230;2023-05-10T06:29:14;2.70;;;2.10;;
679;SDS011;322;48.846;9.230;2023-05-10T06:31:42;2.63;;;2.20;;
679;SDS011;322;48.846;9.230;2023-05-10T06:34:10;3.33;;;1.90;;
679;SDS011;322;48.846;9.230;2023-05-10T06:36:38;4.37;;;2.63;;
679;SDS011;322;48.846;9.230;2023-05-10T06:39:06;1.97;;;1.77;;
679;SDS011;322;48.846;9.230;2023-05-10T06:41:34;2.23;;;1.80;;
679;SDS011;322;48.846;9.230;2023-05-10T06:44:02;1.83;;;1.73;;
679;SDS011;322;48.846;9.230;2023-05-10T06:46:32;2.20;;;1.83;;
679;SDS011;322;48.846;9.230;2023-05-10T06:49:00;1.70;;;1.60;;
679;SDS011;322;48.846;9.230;2023-05-10T06:51:28;2.00;;;1.80;;
679;SDS011;322;48.846;9.230;2023-05-10T06:53:56;2.20;;;1.80;;
679;SDS011;322;48.846;9.230;2023-05-10T06:56:24;2.63;;;1.10;;
679;SDS011;322;48.846;9.230;2023-05-10T06:58:52;1.93;;;1.83;;
679;SDS011;322;48.846;9.230;2023-05-10T07:01:20;3.30;;;1.50;;
679;SDS011;322;48.846;9.230;2023-05-10T07:03:50;2.03;;;1.30;;
679;SDS011;322;48.846;9.230;2023-05-10T07:06:18;3.47;;;1.23;;
679;SDS011;322;48.846;9.230;2023-05-10T07:08:58;2.33;;;1.60;;
679;SDS011;322;48.846;9.230;2023-05-10T07:11:26;5.00;;;1.50;;
679;SDS011;322;48.846;9.230;2023-05-10T07:13:54;1.33;;;1.13;;
679;SDS011;322;48.846;9.230;2023-05-10T07:16:22;1.80;;;1.30;;
679;SDS011;322;48.846;9.230;2023-05-10T07:18:51;3.83;;;1.40;;
679;SDS011;322;48.846;9.230;2023-05-10T07:21:20;2.80;;;1.40;;
679;SDS011;322;48.846;9.230;2023-05-10T07:23:50;1.60;;;1.30;;
679;SDS011;322;48.846;9.230;2023-05-10T07:26:18;3.33;;;1.53;;
679;SDS011;322;48.846;9.230;2023-05-10T07:28:47;4.40;;;2.00;;
679;SDS011;322;48.846;9.230;2023-05-10T07:31:14;1.93;;;1.40;;
679;SDS011;322;48.846;9.230;2023-05-10T07:33:42;1.47;;;1.20;;
679;SDS011;322;48.846;9.230;2023-05-10T07:36:12;3.43;;;1.23;;
679;SDS011;322;48.846;9.230;2023-05-10T07:38:40;1.87;;;1.10;;
679;SDS011;322;48.846;9.230;2023-05-10T07:41:08;3.67;;;1.20;;
679;SDS011;322;48.846;9.230;2023-05-10T07:43:36;1.17;;;1.07;;
679;SDS011;322;48.846;9.230;2023-05-10T07:46:04;1.77;;;1.20;;
679;SDS011;322;48.846;9.230;2023-05-10T07:48:32;3.03;;;1.07;;
679;SDS011;322;48.846;9.230;2023-05-10T07:51:03;1.33;;;1.23;;
679;SDS011;322;48.846;9.230;2023-05-10T07:53:33;1.60;;;0.90;;
679;SDS011;322;48.846;9.230;2023-05-10T07:58:48;2.43;;;1.10;;
679;SDS011;322;48.846;9.230;2023-05-10T08:01:16;1.20;;;1.00;;
679;SDS011;322;48.846;9.230;2023-05-10T08:03:44;1.50;;;1.00;;
679;SDS011;322;48.846;9.230;2023-05-10T08:06:12;1.20;;;0.97;;
679;SDS011;322;48.846;9.230;2023-05-10T08:08:41;0.87;;;0.77;;
679;SDS011;322;48.846;9.230;2023-05-10T08:11:09;1.00;;;0.90;;
679;SDS011;322;48.846;9.230;2023-05-10T08:13:37;1.10;;;0.70;;
679;SDS011;322;48.846;9.230;2023-05-10T08:16:05;1.70;;;1.00;;
679;SDS011;322;48.846;9.230;2023-05-10T08:18:33;1.50;;;1.00;;
679;SDS011;322;48.846;9.230;2023-05-10T08:21:01;1.27;;;0.90;;
679;SDS011;322;48.846;9.230;2023-05-10T08:23:29;1.23;;;0.90;;
679;SDS011;322;48.846;9.230;2023-05-10T08:25:58;2.53;;;0.80;;
679;SDS011;322;48.846;9.230;2023-05-10T08:28:27;2.10;;;0.67;;
679;SDS011;322;48.846;9.230;2023-05-10T08:30:55;0.70;;;0.70;;
679;SDS011;322;48.846;9.230;2023-05-10T08:33:23;1.70;;;0.90;;
679;SDS011;322;48.846;9.230;2023-05-10T08:35:51;1.00;;;0.90;;
679;SDS011;322;48.846;9.230;2023-05-10T08:38:19;0.80;;;0.60;;
679;SDS011;322;48.846;9.230;2023-05-10T08:40:46;1.07;;;0.97;;
679;SDS011;322;48.846;9.230;2023-05-10T08:43:18;0.97;;;0.50;;
679;SDS011;322;48.846;9.230;2023-05-10T08:45:46;1.27;;;0.73;;
679;SDS011;322;48.846;9.230;2023-05-10T08:48:16;0.67;;;0.50;;
679;SDS011;322;48.846;9.230;2023-05-10T08:50:44;0.70;;;0.40;;
679;SDS011;322;48.846;9.230;2023-05-10T08:53:15;1.70;;;0.57;;
679;SDS011;322;48.846;9.230;2023-05-10T08:55:44;1.47;;;0.57;;
679;SDS011;322;48.846;9.230;2023-05-10T08:58:12;0.80;;;0.80;;
679;SDS011;322;48.846;9.230;2023-05-10T09:00:42;1.10;;;0.80;;
679;SDS011;322;48.846;9.230;2023-05-10T09:03:10;0.83;;;0.70;;
679;SDS011;322;48.846;9.230;2023-05-10T09:05:39;1.00;;;0.83;;
679;SDS011;322;48.846;9.230;2023-05-10T09:08:07;0.80;;;0.60;;
679;SDS011;322;48.846;9.230;2023-05-10T09:10:37;2.70;;;0.80;;
679;SDS011;322;48.846;9.230;2023-05-10T09:13:06;0.90;;;0.40;;
679;SDS011;322;48.846;9.230;2023-05-10T09:15:36;3.37;;;0.70;;
679;SDS011;322;48.846;9.230;2023-05-10T09:18:05;2.00;;;0.50;;
679;SDS011;322;48.846;9.230;2023-05-10T09:20:33;1.73;;;0.40;;
679;SDS011;322;48.846;9.230;2023-05-10T09:23:01;3.23;;;0.50;;
679;SDS011;322;48.846;9.230;2023-05-10T09:25:29;0.60;;;0.40;;
679;SDS011;322;48.846;9.230;2023-05-10T09:27:59;2.23;;;0.50;;
679;SDS011;322;48.846;9.230;2023-05-10T09:30:28;0.60;;;0.50;;
679;SDS011;322;48.846;9.230;2023-05-10T09:32:57;0.87;;;0.40;;
679;SDS011;322;48.846;9.230;2023-05-10T09:35:28;2.10;;;0.80;;
679;SDS011;322;48.846;9.230;2023-05-10T09:37:58;0.90;;;0.50;;
679;SDS011;322;48.846;9.230;2023-05-10T09:40:28;1.60;;;0.50;;
679;SDS011;322;48.846;9.230;2023-05-10T09:42:57;1.63;;;0.50;;
679;SDS011;322;48.846;9.230;2023-05-10T09:45:27;0.67;;;0.50;;
679;SDS011;322;48.846;9.230;2023-05-10T09:47:55;1.27;;;0.60;;
679;SDS011;322;48.846;9.230;2023-05-10T09:50:25;2.47;;;0.60;;
679;SDS011;322;48.846;9.230;2023-05-10T09:52:55;0.90;;;0.60;;
679;SDS011;322;48.846;9.230;2023-05-10T09:55:25;1.57;;;0.70;;
679;SDS011;322;48.846;9.230;2023-05-10T09:58:05;1.57;;;0.80;;
679;SDS011;322;48.846;9.230;2023-05-10T10:00:37;0.60;;;0.40;;
679;SDS011;322;48.846;9.230;2023-05-10T10:03:11;1.10;;;0.53;;
679;SDS011;322;48.846;9.230;2023-05-10T10:05:40;0.70;;;0.60;;
679;SDS011;322;48.846;9.230;2023-05-10T10:08:11;2.27;;;0.90;;
679;SDS011;322;48.846;9.230;2023-05-10T10:10:40;0.70;;;0.63;;
679;SDS011;322;48.846;9.230;2023-05-10T10:13:11;1.27;;;0.60;;
679;SDS011;322;48.846;9.230;2023-05-10T10:15:39;1.80;;;0.93;;
679;SDS011;322;48.846;9.230;2023-05-10T10:18:07;1.27;;;0.50;;
679;SDS011;322;48.846;9.230;2023-05-10T10:20:39;1.90;;;1.80;;
679;SDS011;322;48.846;9.230;2023-05-10T10:23:08;2.07;;;0.60;;
679;SDS011;322;48.846;9.230;2023-05-10T10:25:37;1.70;;;0.70;;
679;SDS011;322;48.846;9.230;2023-05-10T10:28:09;1.60;;;0.57;;
679;SDS011;322;48.846;9.230;2023-05-10T10:30:48;1.10;;;0.60;;
679;SDS011;322;48.846;9.230;2023-05-10T10:33:33;2.03;;;0.80;;
679;SDS011;322;48.846;9.230;2023-05-10T10:36:07;0.80;;;0.53;;
679;SDS011;322;48.846;9.230;2023-05-10T10:38:36;0.93;;;0.50;;
679;SDS011;322;48.846;9.230;2023-05-10T10:41:10;1.30;;;0.60;;
679;SDS011;322;48.846;9.230;2023-05-10T10:47:07;1.90;;;0.70;;
679;SDS011;322;48.846;9.230;2023-05-10T10:49:51;2.50;;;0.53;;
679;SDS011;322;48.846;9.230;2023-05-10T10:52:33;1.13;;;0.60;;
679;SDS011;322;48.846;9.230;2023-05-10T10:55:03;0.80;;;0.60;;
679;SDS011;322;48.846;9.230;2023-05-10T10:57:42;0.60;;;0.47;;
679;SDS011;322;48.846;9.230;2023-05-10T11:00:24;1.00;;;0.40;;
679;SDS011;322;48.846;9.230;2023-05-10T11:02:56;1.30;;;0.50;;
679;SDS011;322;48.846;9.230;2023-05-10T11:05:33;1.10;;;0.50;;
679;SDS011;322;48.846;9.230;2023-05-10T11:08:17;0.83;;;0.60;;
679;SDS011;322;48.846;9.230;2023-05-10T11:11:02;3.53;;;0.90;;
679;SDS011;322;48.846;9.230;2023-05-10T11:13:37;1.30;;;0.60;;
679;SDS011;322;48.846;9.230;2023-05-10T11:16:12;1.13;;;0.60;;
679;SDS011;322;48.846;9.230;2023-05-10T11:18:54;0.83;;;0.57;;
679;SDS011;322;48.846;9.230;2023-05-10T11:21:25;2.17;;;0.93;;
679;SDS011;322;48.846;9.230;2023-05-10T11:23:54;0.80;;;0.60;;
679;SDS011;322;48.846;9.230;2023-05-10T11:26:23;1.07;;;0.50;;
679;SDS011;322;48.846;9.230;2023-05-10T11:28:54;0.73;;;0.60;;
679;SDS011;322;48.846;9.230;2023-05-10T11:31:27;2.00;;;0.87;;
679;SDS011;322;48.846;9.230;2023-05-10T11:33:56;1.47;;;0.70;;
679;SDS011;322;48.846;9.230;2023-05-10T11:36:26;1.57;;;0.70;;
679;SDS011;322;48.846;9.230;2023-05-10T11:38:55;0.90;;;0.70;;
679;SDS011;322;48.846;9.230;2023-05-10T11:41:24;3.07;;;0.80;;
679;SDS011;322;48.846;9.230;2023-05-10T11:43:55;0.87;;;0.43;;
679;SDS011;322;48.846;9.230;2023-05-10T11:46:25;1.30;;;0.77;;
679;SDS011;322;48.846;9.230;2023-05-10T11:48:56;1.53;;;0.80;;
679;SDS011;322;48.846;9.230;2023-05-10T11:51:27;0.90;;;0.77;;
679;SDS011;322;48.846;9.230;2023-05-10T11:53:55;1.83;;;1.00;;
679;SDS011;322;48.846;9.230;2023-05-10T11:56:24;2.03;;;1.07;;
679;SDS011;322;48.846;9.230;2023-05-10T11:58:53;3.30;;;0.90;;
679;SDS011;322;48.846;9.230;2023-05-10T12:01:24;1.23;;;1.00;;
679;SDS011;322;48.846;9.230;2023-05-10T12:03:54;1.43;;;1.23;;
679;SDS011;322;48.846;9.230;2023-05-10T12:06:26;1.20;;;1.10;;
679;SDS011;322;48.846;9.230;2023-05-10T12:08:55;3.03;;;1.20;;
679;SDS011;322;48.846;9.230;2023-05-10T12:11:24;3.07;;;1.10;;
679;SDS011;322;48.846;9.230;2023-05-10T12:13:53;1.93;;;0.90;;
679;SDS011;322;48.846;9.230;2023-05-10T12:16:24;2.53;;;0.97;;
679;SDS011;322;48.846;9.230;2023-05-10T12:18:56;1.33;;;1.10;;
679;SDS011;322;48.846;9.230;2023-05-10T12:21:25;1.70;;;1.00;;
679;SDS011;322;48.846;9.230;2023-05-10T12:23:58;2.90;;;1.40;;
679;SDS011;322;48.846;9.230;2023-05-10T12:26:27;1.33;;;1.10;;
679;SDS011;322;48.846;9.230;2023-05-10T12:29:11;2.47;;;1.30;;
679;SDS011;322;48.846;9.230;2023-05-10T12:31:51;3.10;;;1.03;;
679;SDS011;322;48.846;9.230;2023-05-10T12:34:23;8.03;;;1.10;;
679;SDS011;322;48.846;9.230;2023-05-10T12:36:52;3.00;;;1.13;;
679;SDS011;322;48.846;9.230;2023-05-10T12:39:20;2.40;;;0.80;;
679;SDS011;322;48.846;9.230;2023-05-10T12:41:48;1.47;;;0.73;;
679;SDS011;322;48.846;9.230;2023-05-10T12:44:16;2.00;;;0.80;;
679;SDS011;322;48.846;9.230;2023-05-10T12:46:45;4.50;;;0.90;;
679;SDS011;322;48.846;9.230;2023-05-10T12:49:15;2.47;;;1.00;;
679;SDS011;322;48.846;9.230;2023-05-10T12:51:45;1.23;;;0.80;;
679;SDS011;322;48.846;9.230;2023-05-10T12:54:13;1.90;;;1.00;;
679;SDS011;322;48.846;9.230;2023-05-10T12:56:41;2.90;;;1.10;;
679;SDS011;322;48.846;9.230;2023-05-10T12:59:09;1.53;;;0.87;;
679;SDS011;322;48.846;9.230;2023-05-10T13:01:36;5.23;;;1.17;;
679;SDS011;322;48.846;9.230;2023-05-10T13:04:05;2.30;;;0.90;;
679;SDS011;322;48.846;9.230;2023-05-10T13:06:34;1.33;;;0.80;;
679;SDS011;322;48.846;9.230;2023-05-10T13:09:02;3.63;;;0.80;;
679;SDS011;322;48.846;9.230;2023-05-10T13:11:30;1.20;;;1.10;;
679;SDS011;322;48.846;9.230;2023-05-10T13:13:58;2.53;;;0.80;;
679;SDS011;322;48.846;9.230;2023-05-10T13:16:26;1.40;;;1.30;;
679;SDS011;322;48.846;9.230;2023-05-10T13:18:54;4.67;;;0.90;;
679;SDS011;322;48.846;9.230;2023-05-10T13:21:22;2.10;;;0.73;;
679;SDS011;322;48.846;9.230;2023-05-10T13:23:53;4.20;;;1.00;;
679;SDS011;322;48.846;9.230;2023-05-10T13:26:21;3.27;;;1.00;;
679;SDS011;322;48.846;9.230;2023-05-10T13:28:49;1.97;;;0.67;;
679;SDS011;322;48.846;9.230;2023-05-10T13:31:18;2.70;;;1.20;;
679;SDS011;322;48.846;9.230;2023-05-10T13:33:46;2.50;;;0.93;;
679;SDS011;322;48.846;9.230;2023-05-10T13:36:14;1.80;;;0.90;;
679;SDS011;322;48.846;9.230;2023-05-10T13:38:42;1.33;;;0.80;;
679;SDS011;322;48.846;9.230;2023-05-10T13:41:11;1.50;;;0.97;;
679;SDS011;322;48.846;9.230;2023-05-10T13:43:39;2.23;;;1.50;;
679;SDS011;322;48.846;9.230;2023-05-10T13:46:07;2.33;;;1.00;;
679;SDS011;322;48.846;9.230;2023-05-10T13:48:35;2.20;;;1.03;;
679;SDS011;322;48.846;9.230;2023-05-10T13:51:06;3.10;;;1.00;;
679;SDS011;322;48.846;9.230;2023-05-10T13:53:34;1.27;;;0.63;;
679;SDS011;322;48.846;9.230;2023-05-10T13:56:02;2.63;;;1.20;;
679;SDS011;322;48.846;9.230;2023-05-10T13:58:32;2.97;;;0.93;;
679;SDS011;322;48.846;9.230;2023-05-10T14:00:59;3.73;;;0.93;;
679;SDS011;322;48.846;9.230;2023-05-10T14:03:28;3.37;;;1.00;;
679;SDS011;322;48.846;9.230;2023-05-10T14:05:56;2.93;;;1.20;;
679;SDS011;322;48.846;9.230;2023-05-10T14:08:23;0.70;;;0.70;;
679;SDS011;322;48.846;9.230;2023-05-10T14:10:53;2.10;;;0.70;;
679;SDS011;322;48.846;9.230;2023-05-10T14:13:22;0.90;;;0.67;;
679;SDS011;322;48.846;9.230;2023-05-10T14:15:53;1.37;;;0.73;;
679;SDS011;322;48.846;9.230;2023-05-10T14:18:22;1.90;;;0.90;;
679;SDS011;322;48.846;9.230;2023-05-10T14:20:50;3.27;;;0.70;;
679;SDS011;322;48.846;9.230;2023-05-10T14:23:18;3.00;;;0.90;;
679;SDS011;322;48.846;9.230;2023-05-10T14:25:50;1.50;;;0.80;;
679;SDS011;322;48.846;9.230;2023-05-10T14:28:18;2.77;;;1.10;;
679;SDS011;322;48.846;9.230;2023-05-10T14:30:47;2.23;;;0.70;;
679;SDS011;322;48.846;9.230;2023-05-10T14:33:16;1.67;;;0.73;;
679;SDS011;322;48.846;9.230;2023-05-10T14:35:44;2.40;;;1.00;;
679;SDS011;322;48.846;9.230;2023-05-10T14:38:12;3.43;;;0.90;;
679;SDS011;322;48.846;9.230;2023-05-10T14:40:41;2.47;;;0.83;;
679;SDS011;322;48.846;9.230;2023-05-10T14:43:09;2.27;;;0.90;;
679;SDS011;322;48.846;9.230;2023-05-10T14:45:37;2.07;;;0.63;;
679;SDS011;322;48.846;9.230;2023-05-10T14:48:05;3.00;;;1.00;;
679;SDS011;322;48.846;9.230;2023-05-10T14:50:38;1.27;;;0.60;;
679;SDS011;322;48.846;9.230;2023-05-10T14:53:06;1.70;;;0.77;;
679;SDS011;322;48.846;9.230;2023-05-10T14:55:34;1.33;;;0.70;;
679;SDS011;322;48.846;9.230;2023-05-10T14:58:03;3.47;;;1.10;;
679;SDS011;322;48.846;9.230;2023-05-10T15:00:31;1.90;;;0.90;;
679;SDS011;322;48.846;9.230;2023-05-10T15:02:59;2.33;;;0.77;;
679;SDS011;322;48.846;9.230;2023-05-10T15:05:27;0.77;;;0.50;;
679;SDS011;322;48.846;9.230;2023-05-10T15:07:57;1.80;;;0.90;;
679;SDS011;322;48.846;9.230;2023-05-10T15:10:25;2.20;;;0.70;;
679;SDS011;322;48.846;9.230;2023-05-10T15:12:53;1.20;;;0.80;;
679;SDS011;322;48.846;9.230;2023-05-10T15:15:21;1.50;;;0.63;;
679;SDS011;322;48.846;9.230;2023-05-10T15:17:49;0.83;;;0.60;;
679;SDS011;322;48.846;9.230;2023-05-10T15:20:17;0.93;;;0.70;;
679;SDS011;322;48.846;9.230;2023-05-10T15:22:45;1.00;;;0.53;;
679;SDS011;322;48.846;9.230;2023-05-10T15:25:14;2.10;;;1.10;;
679;SDS011;322;48.846;9.230;2023-05-10T15:27:42;4.73;;;1.03;;
679;SDS011;322;48.846;9.230;2023-05-10T15:30:10;1.17;;;0.60;;
679;SDS011;322;48.846;9.230;2023-05-10T15:32:39;2.03;;;0.73;;
679;SDS011;322;48.846;9.230;2023-05-10T15:35:07;1.80;;;0.70;;
679;SDS011;322;48.846;9.230;2023-05-10T15:37:36;4.60;;;0.93;;
679;SDS011;322;48.846;9.230;2023-05-10T15:40:04;1.83;;;1.10;;
679;SDS011;322;48.846;9.230;2023-05-10T15:42:34;1.63;;;0.80;;
679;SDS011;322;48.846;9.230;2023-05-10T15:45:02;1.50;;;0.70;;
679;SDS011;322;48.846;9.230;2023-05-10T15:47:32;1.83;;;0.70;;
679;SDS011;322;48.846;9.230;2023-05-10T15:50:00;1.53;;;0.70;;
679;SDS011;322;48.846;9.230;2023-05-10T15:52:28;1.97;;;1.07;;
679;SDS011;322;48.846;9.230;2023-05-10T15:54:56;2.40;;;1.00;;
679;SDS011;322;48.846;9.230;2023-05-10T15:57:24;1.20;;;0.73;;
679;SDS011;322;48.846;9.230;2023-05-10T15:59:53;1.03;;;0.60;;
679;SDS011;322;48.846;9.230;2023-05-10T16:02:21;0.80;;;0.63;;
679;SDS011;322;48.846;9.230;2023-05-10T16:04:49;2.00;;;0.83;;
679;SDS011;322;48.846;9.230;2023-05-10T16:07:17;2.77;;;0.83;;
679;SDS011;322;48.846;9.230;2023-05-10T16:09:45;2.33;;;0.60;;
679;SDS011;322;48.846;9.230;2023-05-10T16:12:14;1.70;;;0.97;;
679;SDS011;322;48.846;9.230;2023-05-10T16:14:42;2.20;;;0.70;;
679;SDS011;322;48.846;9.230;2023-05-10T16:17:11;1.00;;;0.90;;
679;SDS011;322;48.846;9.230;2023-05-10T16:19:40;1.70;;;1.10;;